Terminal Aerodrome Forecast
Issued by NWS Charleston, WV

Current Version | Previous Version | Graphics & Text | Print | Product List | Glossary Off
Versions: 1 2 3 4 5 6 7 8 9 10 11 12 13 14 15 16 17 18 19 20 21 22 23 24

946
FTUS41 KRLX 301141
TAFHTS
TAF
KHTS 301141Z 3012/0112 VRB02KT 3SM SHRA VCTS OVC003CB
     FM301213 VRB02KT P6SM OVC002
     FM301400 VRB02KT 2SM SHRA BKN008
     FM301600 VRB03KT P6SM BKN010
     FM302100 VRB03KT P6SM BKN035
     FM010800 VRB02KT 1SM BR SCT001=

USA.gov is the U.S. government's official web portal to all federal, state and local government web resources and services.